sensor_id;sensor_type;location;lat;lon;timestamp;P1;durP1;ratioP1;P2;durP2;ratioP2
37655;SDS011;23498;50.958;3.124;2023-01-26T00:01:29;86.47;;;30.83;;
37655;SDS011;23498;50.958;3.124;2023-01-26T00:03:55;86.53;;;30.65;;
37655;SDS011;23498;50.958;3.124;2023-01-26T00:06:22;88.07;;;31.10;;
37655;SDS011;23498;50.958;3.124;2023-01-26T00:08:49;83.78;;;29.98;;
37655;SDS011;23498;50.958;3.124;2023-01-26T00:11:16;85.00;;;31.38;;
37655;SDS011;23498;50.958;3.124;2023-01-26T00:13:43;79.22;;;29.38;;
37655;SDS011;23498;50.958;3.124;2023-01-26T00:16:10;73.03;;;28.08;;
37655;SDS011;23498;50.958;3.124;2023-01-26T00:18:37;74.50;;;26.55;;
37655;SDS011;23498;50.958;3.124;2023-01-26T00:21:03;79.07;;;27.75;;
37655;SDS011;23498;50.958;3.124;2023-01-26T00:23:30;77.30;;;27.00;;
37655;SDS011;23498;50.958;3.124;2023-01-26T00:25:57;73.05;;;27.00;;
37655;SDS011;23498;50.958;3.124;2023-01-26T00:28:23;78.63;;;28.00;;
37655;SDS011;23498;50.958;3.124;2023-01-26T00:30:49;76.57;;;28.98;;
37655;SDS011;23498;50.958;3.124;2023-01-26T00:33:15;73.45;;;28.42;;
37655;SDS011;23498;50.958;3.124;2023-01-26T00:35:41;77.55;;;27.52;;
37655;SDS011;23498;50.958;3.124;2023-01-26T00:38:10;74.20;;;27.70;;
37655;SDS011;23498;50.958;3.124;2023-01-26T00:40:37;70.75;;;27.88;;
37655;SDS011;23498;50.958;3.124;2023-01-26T00:43:03;67.15;;;26.13;;
37655;SDS011;23498;50.958;3.124;2023-01-26T00:45:29;74.85;;;26.75;;
37655;SDS011;23498;50.958;3.124;2023-01-26T00:47:55;70.75;;;27.38;;
37655;SDS011;23498;50.958;3.124;2023-01-26T00:50:21;76.43;;;27.88;;
37655;SDS011;23498;50.958;3.124;2023-01-26T00:52:47;72.03;;;25.80;;
37655;SDS011;23498;50.958;3.124;2023-01-26T00:55:13;70.80;;;26.42;;
37655;SDS011;23498;50.958;3.124;2023-01-26T00:57:39;71.53;;;26.23;;
37655;SDS011;23498;50.958;3.124;2023-01-26T01:00:05;72.85;;;25.13;;
37655;SDS011;23498;50.958;3.124;2023-01-26T01:02:31;71.63;;;26.77;;
37655;SDS011;23498;50.958;3.124;2023-01-26T01:04:57;63.63;;;25.80;;
37655;SDS011;23498;50.958;3.124;2023-01-26T01:07:23;63.90;;;24.17;;
37655;SDS011;23498;50.958;3.124;2023-01-26T01:09:49;67.28;;;25.52;;
37655;SDS011;23498;50.958;3.124;2023-01-26T01:12:15;66.70;;;25.17;;
37655;SDS011;23498;50.958;3.124;2023-01-26T01:14:41;63.28;;;24.05;;
37655;SDS011;23498;50.958;3.124;2023-01-26T01:17:07;72.40;;;25.23;;
37655;SDS011;23498;50.958;3.124;2023-01-26T01:19:33;61.58;;;23.88;;
37655;SDS011;23498;50.958;3.124;2023-01-26T01:21:59;62.95;;;23.60;;
37655;SDS011;23498;50.958;3.124;2023-01-26T01:24:25;61.97;;;24.17;;
37655;SDS011;23498;50.958;3.124;2023-01-26T01:26:51;56.60;;;21.88;;
37655;SDS011;23498;50.958;3.124;2023-01-26T01:29:17;62.10;;;23.80;;
37655;SDS011;23498;50.958;3.124;2023-01-26T01:31:43;59.05;;;23.35;;
37655;SDS011;23498;50.958;3.124;2023-01-26T01:34:09;59.67;;;23.88;;
37655;SDS011;23498;50.958;3.124;2023-01-26T01:36:35;62.80;;;23.88;;
37655;SDS011;23498;50.958;3.124;2023-01-26T01:39:01;54.33;;;22.55;;
37655;SDS011;23498;50.958;3.124;2023-01-26T01:41:27;51.30;;;22.13;;
37655;SDS011;23498;50.958;3.124;2023-01-26T01:46:37;60.70;;;23.67;;
37655;SDS011;23498;50.958;3.124;2023-01-26T01:49:05;51.03;;;22.45;;
37655;SDS011;23498;50.958;3.124;2023-01-26T01:51:47;53.42;;;21.73;;
37655;SDS011;23498;50.958;3.124;2023-01-26T01:54:15;55.42;;;22.75;;
37655;SDS011;23498;50.958;3.124;2023-01-26T01:56:44;49.08;;;21.25;;
37655;SDS011;23498;50.958;3.124;2023-01-26T01:59:12;54.63;;;22.60;;
37655;SDS011;23498;50.958;3.124;2023-01-26T02:01:39;51.47;;;21.88;;
37655;SDS011;23498;50.958;3.124;2023-01-26T02:04:05;54.78;;;21.70;;
37655;SDS011;23498;50.958;3.124;2023-01-26T02:06:34;55.92;;;23.13;;
37655;SDS011;23498;50.958;3.124;2023-01-26T02:09:01;58.97;;;23.75;;
37655;SDS011;23498;50.958;3.124;2023-01-26T02:11:33;51.33;;;21.05;;
37655;SDS011;23498;50.958;3.124;2023-01-26T02:14:04;52.45;;;22.00;;
37655;SDS011;23498;50.958;3.124;2023-01-26T02:16:31;53.58;;;22.08;;
37655;SDS011;23498;50.958;3.124;2023-01-26T02:18:57;51.45;;;21.35;;
37655;SDS011;23498;50.958;3.124;2023-01-26T02:21:23;53.60;;;22.10;;
37655;SDS011;23498;50.958;3.124;2023-01-26T02:26:35;56.85;;;24.15;;
37655;SDS011;23498;50.958;3.124;2023-01-26T02:29:02;57.78;;;22.48;;
37655;SDS011;23498;50.958;3.124;2023-01-26T02:31:29;54.50;;;22.55;;
37655;SDS011;23498;50.958;3.124;2023-01-26T02:33:55;54.88;;;22.92;;
37655;SDS011;23498;50.958;3.124;2023-01-26T02:36:23;55.42;;;23.08;;
37655;SDS011;23498;50.958;3.124;2023-01-26T02:39:37;61.17;;;23.98;;
37655;SDS011;23498;50.958;3.124;2023-01-26T02:41:35;59.05;;;23.75;;
37655;SDS011;23498;50.958;3.124;2023-01-26T02:44:19;58.78;;;23.23;;
37655;SDS011;23498;50.958;3.124;2023-01-26T02:46:45;57.63;;;23.23;;
37655;SDS011;23498;50.958;3.124;2023-01-26T02:49:11;57.20;;;23.67;;
37655;SDS011;23498;50.958;3.124;2023-01-26T02:51:56;56.72;;;23.00;;
37655;SDS011;23498;50.958;3.124;2023-01-26T02:54:22;56.33;;;22.42;;
37655;SDS011;23498;50.958;3.124;2023-01-26T02:57:06;55.28;;;22.63;;
37655;SDS011;23498;50.958;3.124;2023-01-26T02:59:32;57.67;;;22.52;;
37655;SDS011;23498;50.958;3.124;2023-01-26T03:01:58;58.28;;;23.13;;
37655;SDS011;23498;50.958;3.124;2023-01-26T03:04:24;59.95;;;23.10;;
37655;SDS011;23498;50.958;3.124;2023-01-26T03:06:51;61.83;;;23.50;;
37655;SDS011;23498;50.958;3.124;2023-01-26T03:09:17;60.63;;;23.10;;
37655;SDS011;23498;50.958;3.124;2023-01-26T03:11:43;66.00;;;25.33;;
37655;SDS011;23498;50.958;3.124;2023-01-26T03:14:12;59.08;;;23.85;;
37655;SDS011;23498;50.958;3.124;2023-01-26T03:16:40;65.63;;;23.98;;
37655;SDS011;23498;50.958;3.124;2023-01-26T03:19:07;62.58;;;23.92;;
37655;SDS011;23498;50.958;3.124;2023-01-26T03:21:34;63.47;;;24.30;;
37655;SDS011;23498;50.958;3.124;2023-01-26T03:24:19;72.38;;;23.92;;
37655;SDS011;23498;50.958;3.124;2023-01-26T03:27:04;65.72;;;24.55;;
37655;SDS011;23498;50.958;3.124;2023-01-26T03:29:50;68.10;;;26.42;;
37655;SDS011;23498;50.958;3.124;2023-01-26T03:32:16;67.90;;;24.77;;
37655;SDS011;23498;50.958;3.124;2023-01-26T03:34:42;67.80;;;24.17;;
37655;SDS011;23498;50.958;3.124;2023-01-26T03:37:08;61.50;;;24.88;;
37655;SDS011;23498;50.958;3.124;2023-01-26T03:39:34;68.30;;;26.08;;
37655;SDS011;23498;50.958;3.124;2023-01-26T03:42:18;73.70;;;26.13;;
37655;SDS011;23498;50.958;3.124;2023-01-26T03:45:04;73.43;;;26.33;;
37655;SDS011;23498;50.958;3.124;2023-01-26T03:47:49;72.38;;;24.92;;
37655;SDS011;23498;50.958;3.124;2023-01-26T03:50:33;76.00;;;26.80;;
37655;SDS011;23498;50.958;3.124;2023-01-26T03:53:19;69.40;;;25.85;;
37655;SDS011;23498;50.958;3.124;2023-01-26T03:56:05;65.88;;;25.70;;
37655;SDS011;23498;50.958;3.124;2023-01-26T03:58:42;69.10;;;25.90;;
37655;SDS011;23498;50.958;3.124;2023-01-26T04:01:09;71.68;;;26.00;;
37655;SDS011;23498;50.958;3.124;2023-01-26T04:03:42;69.80;;;25.17;;
37655;SDS011;23498;50.958;3.124;2023-01-26T04:06:27;68.50;;;25.55;;
37655;SDS011;23498;50.958;3.124;2023-01-26T04:09:11;71.70;;;24.52;;
37655;SDS011;23498;50.958;3.124;2023-01-26T04:11:39;67.40;;;25.85;;
37655;SDS011;23498;50.958;3.124;2023-01-26T04:14:05;65.03;;;24.38;;
37655;SDS011;23498;50.958;3.124;2023-01-26T04:16:49;66.95;;;24.55;;
37655;SDS011;23498;50.958;3.124;2023-01-26T04:19:34;68.40;;;25.55;;
37655;SDS011;23498;50.958;3.124;2023-01-26T04:22:18;62.78;;;24.20;;
37655;SDS011;23498;50.958;3.124;2023-01-26T04:24:44;66.35;;;25.60;;
37655;SDS011;23498;50.958;3.124;2023-01-26T04:27:10;68.05;;;25.90;;
37655;SDS011;23498;50.958;3.124;2023-01-26T04:29:36;68.18;;;24.73;;
37655;SDS011;23498;50.958;3.124;2023-01-26T04:32:02;65.38;;;26.92;;
37655;SDS011;23498;50.958;3.124;2023-01-26T04:34:28;73.00;;;26.83;;
37655;SDS011;23498;50.958;3.124;2023-01-26T04:36:54;77.47;;;26.50;;
37655;SDS011;23498;50.958;3.124;2023-01-26T04:39:20;82.97;;;30.13;;
37655;SDS011;23498;50.958;3.124;2023-01-26T04:41:46;81.38;;;27.35;;
37655;SDS011;23498;50.958;3.124;2023-01-26T04:44:12;80.10;;;28.80;;
37655;SDS011;23498;50.958;3.124;2023-01-26T04:46:38;80.10;;;28.23;;
37655;SDS011;23498;50.958;3.124;2023-01-26T04:49:04;78.50;;;28.35;;
37655;SDS011;23498;50.958;3.124;2023-01-26T04:51:30;79.70;;;28.15;;
37655;SDS011;23498;50.958;3.124;2023-01-26T04:53:56;79.50;;;26.90;;
37655;SDS011;23498;50.958;3.124;2023-01-26T04:56:23;80.07;;;28.80;;
37655;SDS011;23498;50.958;3.124;2023-01-26T04:58:49;85.13;;;29.13;;
37655;SDS011;23498;50.958;3.124;2023-01-26T05:01:16;75.07;;;27.73;;
37655;SDS011;23498;50.958;3.124;2023-01-26T05:03:42;75.30;;;27.83;;
37655;SDS011;23498;50.958;3.124;2023-01-26T05:06:08;73.88;;;28.92;;
37655;SDS011;23498;50.958;3.124;2023-01-26T05:08:34;79.00;;;28.85;;
37655;SDS011;23498;50.958;3.124;2023-01-26T05:11:00;77.20;;;28.45;;
37655;SDS011;23498;50.958;3.124;2023-01-26T05:13:26;82.07;;;29.02;;
37655;SDS011;23498;50.958;3.124;2023-01-26T05:15:52;75.60;;;27.23;;
37655;SDS011;23498;50.958;3.124;2023-01-26T05:18:18;76.55;;;28.35;;
37655;SDS011;23498;50.958;3.124;2023-01-26T05:20:44;82.03;;;28.67;;
37655;SDS011;23498;50.958;3.124;2023-01-26T05:23:10;75.88;;;27.98;;
37655;SDS011;23498;50.958;3.124;2023-01-26T05:25:36;78.55;;;28.27;;
37655;SDS011;23498;50.958;3.124;2023-01-26T05:28:02;77.65;;;28.42;;
37655;SDS011;23498;50.958;3.124;2023-01-26T05:30:28;73.68;;;27.25;;
37655;SDS011;23498;50.958;3.124;2023-01-26T05:32:59;78.95;;;28.55;;
37655;SDS011;23498;50.958;3.124;2023-01-26T05:35:25;74.20;;;27.00;;
37655;SDS011;23498;50.958;3.124;2023-01-26T05:37:51;71.55;;;28.30;;
37655;SDS011;23498;50.958;3.124;2023-01-26T05:40:17;75.15;;;26.75;;
37655;SDS011;23498;50.958;3.124;2023-01-26T05:42:43;69.13;;;25.88;;
37655;SDS011;23498;50.958;3.124;2023-01-26T05:45:10;65.80;;;25.70;;
37655;SDS011;23498;50.958;3.124;2023-01-26T05:47:36;71.60;;;26.35;;
37655;SDS011;23498;50.958;3.124;2023-01-26T05:50:02;70.72;;;25.95;;
37655;SDS011;23498;50.958;3.124;2023-01-26T05:52:28;69.38;;;25.42;;
37655;SDS011;23498;50.958;3.124;2023-01-26T05:54:54;66.75;;;26.05;;
37655;SDS011;23498;50.958;3.124;2023-01-26T05:57:20;66.35;;;25.75;;
37655;SDS011;23498;50.958;3.124;2023-01-26T05:59:46;68.30;;;25.77;;
37655;SDS011;23498;50.958;3.124;2023-01-26T06:02:12;60.22;;;25.02;;
37655;SDS011;23498;50.958;3.124;2023-01-26T06:04:38;64.88;;;25.35;;
37655;SDS011;23498;50.958;3.124;2023-01-26T06:07:04;57.08;;;22.85;;
37655;SDS011;23498;50.958;3.124;2023-01-26T06:09:30;64.80;;;25.40;;
37655;SDS011;23498;50.958;3.124;2023-01-26T06:11:57;54.50;;;23.27;;
37655;SDS011;23498;50.958;3.124;2023-01-26T06:14:23;54.17;;;21.98;;
37655;SDS011;23498;50.958;3.124;2023-01-26T06:16:49;46.28;;;17.58;;
37655;SDS011;23498;50.958;3.124;2023-01-26T06:19:16;39.28;;;15.48;;
37655;SDS011;23498;50.958;3.124;2023-01-26T06:21:43;32.95;;;12.48;;
37655;SDS011;23498;50.958;3.124;2023-01-26T06:24:09;24.88;;;9.27;;
37655;SDS011;23498;50.958;3.124;2023-01-26T06:26:35;23.80;;;8.23;;
37655;SDS011;23498;50.958;3.124;2023-01-26T06:29:01;15.23;;;4.93;;
37655;SDS011;23498;50.958;3.124;2023-01-26T06:31:27;14.23;;;5.07;;
37655;SDS011;23498;50.958;3.124;2023-01-26T06:33:56;14.25;;;4.90;;
37655;SDS011;23498;50.958;3.124;2023-01-26T06:36:22;16.08;;;4.50;;
37655;SDS011;23498;50.958;3.124;2023-01-26T06:38:48;13.30;;;5.32;;
37655;SDS011;23498;50.958;3.124;2023-01-26T06:41:15;14.60;;;4.88;;
37655;SDS011;23498;50.958;3.124;2023-01-26T06:43:45;12.70;;;5.78;;
37655;SDS011;23498;50.958;3.124;2023-01-26T06:46:11;15.95;;;6.97;;
37655;SDS011;23498;50.958;3.124;2023-01-26T06:48:37;15.05;;;7.38;;
37655;SDS011;23498;50.958;3.124;2023-01-26T06:51:04;18.88;;;9.90;;
37655;SDS011;23498;50.958;3.124;2023-01-26T06:53:56;19.33;;;10.90;;
37655;SDS011;23498;50.958;3.124;2023-01-26T06:56:23;21.95;;;12.48;;
37655;SDS011;23498;50.958;3.124;2023-01-26T06:58:49;24.80;;;13.80;;
37655;SDS011;23498;50.958;3.124;2023-01-26T07:01:16;24.80;;;14.50;;
37655;SDS011;23498;50.958;3.124;2023-01-26T07:03:42;27.00;;;16.40;;
37655;SDS011;23498;50.958;3.124;2023-01-26T07:06:08;29.10;;;17.92;;
37655;SDS011;23498;50.958;3.124;2023-01-26T07:08:37;31.13;;;17.65;;
37655;SDS011;23498;50.958;3.124;2023-01-26T07:11:03;36.42;;;20.77;;
37655;SDS011;23498;50.958;3.124;2023-01-26T07:13:29;34.65;;;20.35;;
37655;SDS011;23498;50.958;3.124;2023-01-26T07:15:59;30.77;;;19.88;;
37655;SDS011;23498;50.958;3.124;2023-01-26T07:18:25;31.50;;;20.45;;
37655;SDS011;23498;50.958;3.124;2023-01-26T07:20:51;31.75;;;19.20;;
37655;SDS011;23498;50.958;3.124;2023-01-26T07:23:17;35.28;;;20.77;;
37655;SDS011;23498;50.958;3.124;2023-01-26T07:25:43;32.15;;;21.63;;
37655;SDS011;23498;50.958;3.124;2023-01-26T07:28:09;35.55;;;22.48;;
37655;SDS011;23498;50.958;3.124;2023-01-26T07:30:35;35.67;;;21.83;;
37655;SDS011;23498;50.958;3.124;2023-01-26T07:33:01;37.03;;;24.50;;
37655;SDS011;23498;50.958;3.124;2023-01-26T07:35:27;36.97;;;23.30;;
37655;SDS011;23498;50.958;3.124;2023-01-26T07:37:54;36.85;;;23.35;;
37655;SDS011;23498;50.958;3.124;2023-01-26T07:40:22;37.28;;;23.33;;
37655;SDS011;23498;50.958;3.124;2023-01-26T07:42:48;40.88;;;24.75;;
37655;SDS011;23498;50.958;3.124;2023-01-26T07:45:14;38.40;;;22.98;;
37655;SDS011;23498;50.958;3.124;2023-01-26T07:47:42;35.70;;;22.98;;
37655;SDS011;23498;50.958;3.124;2023-01-26T07:50:08;36.63;;;23.70;;
37655;SDS011;23498;50.958;3.124;2023-01-26T07:52:35;39.78;;;21.33;;
37655;SDS011;23498;50.958;3.124;2023-01-26T07:55:02;37.45;;;22.15;;
37655;SDS011;23498;50.958;3.124;2023-01-26T07:57:28;37.47;;;21.00;;
37655;SDS011;23498;50.958;3.124;2023-01-26T07:59:54;37.58;;;20.13;;
37655;SDS011;23498;50.958;3.124;2023-01-26T08:02:20;36.53;;;20.13;;
37655;SDS011;23498;50.958;3.124;2023-01-26T08:04:46;33.35;;;18.40;;
37655;SDS011;23498;50.958;3.124;2023-01-26T08:07:13;33.88;;;17.83;;
37655;SDS011;23498;50.958;3.124;2023-01-26T08:09:39;37.00;;;17.58;;
37655;SDS011;23498;50.958;3.124;2023-01-26T08:12:05;33.58;;;16.88;;
37655;SDS011;23498;50.958;3.124;2023-01-26T08:14:31;34.95;;;14.20;;
37655;SDS011;23498;50.958;3.124;2023-01-26T08:16:57;27.60;;;10.77;;
37655;SDS011;23498;50.958;3.124;2023-01-26T08:19:23;22.92;;;9.13;;
37655;SDS011;23498;50.958;3.124;2023-01-26T08:21:49;30.25;;;8.27;;
37655;SDS011;23498;50.958;3.124;2023-01-26T08:24:17;25.17;;;6.68;;
37655;SDS011;23498;50.958;3.124;2023-01-26T08:26:43;34.33;;;7.10;;
37655;SDS011;23498;50.958;3.124;2023-01-26T08:29:09;24.70;;;4.97;;
37655;SDS011;23498;50.958;3.124;2023-01-26T08:31:35;29.48;;;6.43;;
37655;SDS011;23498;50.958;3.124;2023-01-26T08:34:02;26.23;;;5.35;;
37655;SDS011;23498;50.958;3.124;2023-01-26T08:36:28;27.67;;;4.28;;
37655;SDS011;23498;50.958;3.124;2023-01-26T08:38:54;30.20;;;5.20;;
37655;SDS011;23498;50.958;3.124;2023-01-26T08:41:21;30.88;;;5.00;;
37655;SDS011;23498;50.958;3.124;2023-01-26T08:43:47;24.77;;;3.75;;
37655;SDS011;23498;50.958;3.124;2023-01-26T08:46:13;34.55;;;5.05;;
37655;SDS011;23498;50.958;3.124;2023-01-26T08:48:39;27.25;;;4.47;;
37655;SDS011;23498;50.958;3.124;2023-01-26T08:51:06;28.58;;;4.25;;
37655;SDS011;23498;50.958;3.124;2023-01-26T08:53:33;34.92;;;5.10;;
37655;SDS011;23498;50.958;3.124;2023-01-26T08:56:03;30.98;;;5.20;;
37655;SDS011;23498;50.958;3.124;2023-01-26T08:58:32;24.90;;;5.13;;
37655;SDS011;23498;50.958;3.124;2023-01-26T09:00:58;22.45;;;3.63;;
37655;SDS011;23498;50.958;3.124;2023-01-26T09:03:24;29.08;;;4.80;;
37655;SDS011;23498;50.958;3.124;2023-01-26T09:05:50;28.60;;;4.20;;
37655;SDS011;23498;50.958;3.124;2023-01-26T09:08:16;30.40;;;4.10;;
37655;SDS011;23498;50.958;3.124;2023-01-26T09:10:42;18.20;;;3.72;;
37655;SDS011;23498;50.958;3.124;2023-01-26T09:13:11;19.95;;;3.92;;
37655;SDS011;23498;50.958;3.124;2023-01-26T09:15:37;27.98;;;3.72;;
37655;SDS011;23498;50.958;3.124;2023-01-26T09:18:03;21.25;;;3.78;;
37655;SDS011;23498;50.958;3.124;2023-01-26T09:20:29;29.73;;;4.78;;
37655;SDS011;23498;50.958;3.124;2023-01-26T09:22:56;22.88;;;3.95;;
37655;SDS011;23498;50.958;3.124;2023-01-26T09:25:22;17.27;;;3.28;;
37655;SDS011;23498;50.958;3.124;2023-01-26T09:27:48;23.08;;;5.20;;
37655;SDS011;23498;50.958;3.124;2023-01-26T09:30:14;24.45;;;3.70;;
37655;SDS011;23498;50.958;3.124;2023-01-26T09:32:40;30.50;;;5.28;;
37655;SDS011;23498;50.958;3.124;2023-01-26T09:35:06;23.08;;;3.28;;
37655;SDS011;23498;50.958;3.124;2023-01-26T09:37:35;23.63;;;4.00;;
37655;SDS011;23498;50.958;3.124;2023-01-26T09:40:02;26.35;;;4.55;;
37655;SDS011;23498;50.958;3.124;2023-01-26T09:47:30;18.73;;;3.10;;
37655;SDS011;23498;50.958;3.124;2023-01-26T09:50:22;17.75;;;3.35;;
37655;SDS011;23498;50.958;3.124;2023-01-26T10:00:56;22.33;;;4.40;;
37655;SDS011;23498;50.958;3.124;2023-01-26T10:03:45;19.05;;;3.20;;
37655;SDS011;23498;50.958;3.124;2023-01-26T10:06:28;24.90;;;3.17;;
37655;SDS011;23498;50.958;3.124;2023-01-26T10:09:27;21.98;;;3.00;;
37655;SDS011;23498;50.958;3.124;2023-01-26T10:12:25;24.58;;;3.20;;
37655;SDS011;23498;50.958;3.124;2023-01-26T10:17:43;19.35;;;3.65;;
37655;SDS011;23498;50.958;3.124;2023-01-26T10:20:27;16.58;;;2.92;;
37655;SDS011;23498;50.958;3.124;2023-01-26T10:22:58;21.15;;;3.65;;
37655;SDS011;23498;50.958;3.124;2023-01-26T10:25:28;17.25;;;3.25;;
37655;SDS011;23498;50.958;3.124;2023-01-26T10:27:54;20.27;;;4.03;;
37655;SDS011;23498;50.958;3.124;2023-01-26T10:30:20;23.35;;;4.97;;
37655;SDS011;23498;50.958;3.124;2023-01-26T10:32:49;22.63;;;3.58;;
37655;SDS011;23498;50.958;3.124;2023-01-26T10:35:20;14.80;;;2.65;;
37655;SDS011;23498;50.958;3.124;2023-01-26T10:37:46;15.10;;;3.35;;
37655;SDS011;23498;50.958;3.124;2023-01-26T10:40:13;17.80;;;3.45;;
37655;SDS011;23498;50.958;3.124;2023-01-26T10:42:40;22.35;;;3.55;;
37655;SDS011;23498;50.958;3.124;2023-01-26T10:45:22;19.20;;;3.35;;
37655;SDS011;23498;50.958;3.124;2023-01-26T10:48:08;20.35;;;2.97;;
37655;SDS011;23498;50.958;3.124;2023-01-26T10:50:38;14.82;;;3.00;;
37655;SDS011;23498;50.958;3.124;2023-01-26T10:53:04;17.10;;;3.10;;
37655;SDS011;23498;50.958;3.124;2023-01-26T10:55:33;17.25;;;3.47;;
37655;SDS011;23498;50.958;3.124;2023-01-26T10:58:01;18.13;;;3.00;;
37655;SDS011;23498;50.958;3.124;2023-01-26T11:00:28;15.45;;;3.35;;
37655;SDS011;23498;50.958;3.124;2023-01-26T11:05:37;25.52;;;3.20;;
37655;SDS011;23498;50.958;3.124;2023-01-26T11:08:08;11.23;;;2.22;;
37655;SDS011;23498;50.958;3.124;2023-01-26T11:10:52;21.85;;;3.13;;
37655;SDS011;23498;50.958;3.124;2023-01-26T11:13:19;13.45;;;2.60;;
37655;SDS011;23498;50.958;3.124;2023-01-26T11:16:13;14.38;;;2.35;;
37655;SDS011;23498;50.958;3.124;2023-01-26T11:19:25;12.98;;;2.30;;
37655;SDS011;23498;50.958;3.124;2023-01-26T11:21:57;14.25;;;2.63;;
37655;SDS011;23498;50.958;3.124;2023-01-26T11:24:45;14.13;;;2.53;;
37655;SDS011;23498;50.958;3.124;2023-01-26T11:27:22;17.00;;;2.40;;
37655;SDS011;23498;50.958;3.124;2023-01-26T11:36:10;14.00;;;2.45;;
37655;SDS011;23498;50.958;3.124;2023-01-26T11:50:40;13.38;;;2.38;;
37655;SDS011;23498;50.958;3.124;2023-01-26T11:56:34;12.35;;;2.72;;
37655;SDS011;23498;50.958;3.124;2023-01-26T12:01:33;15.23;;;2.58;;
37655;SDS011;23498;50.958;3.124;2023-01-26T12:04:00;13.55;;;2.75;;
37655;SDS011;23498;50.958;3.124;2023-01-26T12:06:36;11.25;;;1.83;;
37655;SDS011;23498;50.958;3.124;2023-01-26T12:22:05;16.23;;;2.40;;
37655;SDS011;23498;50.958;3.124;2023-01-26T12:24:36;13.13;;;2.88;;
37655;SDS011;23498;50.958;3.124;2023-01-26T12:27:04;16.02;;;2.35;;
37655;SDS011;23498;50.958;3.124;2023-01-26T12:29:37;13.90;;;2.30;;
37655;SDS011;23498;50.958;3.124;2023-01-26T12:32:12;11.43;;;2.53;;
37655;SDS011;23498;50.958;3.124;2023-01-26T12:34:38;14.15;;;2.25;;
37655;SDS011;23498;50.958;3.124;2023-01-26T12:42:28;12.70;;;2.08;;
37655;SDS011;23498;50.958;3.124;2023-01-26T12:44:59;15.38;;;2.33;;
37655;SDS011;23498;50.958;3.124;2023-01-26T12:47:44;11.23;;;2.50;;
37655;SDS011;23498;50.958;3.124;2023-01-26T12:52:39;11.90;;;2.10;;
37655;SDS011;23498;50.958;3.124;2023-01-26T12:55:15;13.77;;;2.05;;
37655;SDS011;23498;50.958;3.124;2023-01-26T12:57:43;10.70;;;2.10;;
37655;SDS011;23498;50.958;3.124;2023-01-26T13:00:20;9.90;;;1.90;;
37655;SDS011;23498;50.958;3.124;2023-01-26T13:02:48;9.93;;;2.60;;
37655;SDS011;23498;50.958;3.124;2023-01-26T13:07:50;11.80;;;2.10;;
37655;SDS011;23498;50.958;3.124;2023-01-26T13:15:19;9.18;;;2.13;;
37655;SDS011;23498;50.958;3.124;2023-01-26T13:20:57;10.30;;;2.10;;
37655;SDS011;23498;50.958;3.124;2023-01-26T13:22:58;16.70;;;2.63;;
37655;SDS011;23498;50.958;3.124;2023-01-26T13:25:28;12.20;;;2.05;;
37655;SDS011;23498;50.958;3.124;2023-01-26T13:27:57;8.63;;;2.17;;
37655;SDS011;23498;50.958;3.124;2023-01-26T13:30:38;12.63;;;2.58;;
37655;SDS011;23498;50.958;3.124;2023-01-26T13:35:39;13.48;;;2.15;;
37655;SDS011;23498;50.958;3.124;2023-01-26T13:38:08;11.90;;;1.45;;
37655;SDS011;23498;50.958;3.124;2023-01-26T13:40:50;11.48;;;2.45;;
37655;SDS011;23498;50.958;3.124;2023-01-26T13:44:13;13.10;;;2.20;;
37655;SDS011;23498;50.958;3.124;2023-01-26T13:47:06;10.60;;;2.40;;
37655;SDS011;23498;50.958;3.124;2023-01-26T13:49:43;13.15;;;1.55;;
37655;SDS011;23498;50.958;3.124;2023-01-26T13:52:53;13.88;;;2.58;;
37655;SDS011;23498;50.958;3.124;2023-01-26T13:55:29;12.77;;;1.73;;
37655;SDS011;23498;50.958;3.124;2023-01-26T13:58:08;12.52;;;2.30;;
37655;SDS011;23498;50.958;3.124;2023-01-26T14:01:01;15.60;;;2.17;;
37655;SDS011;23498;50.958;3.124;2023-01-26T14:04:00;8.75;;;1.98;;
37655;SDS011;23498;50.958;3.124;2023-01-26T14:06:25;13.82;;;2.22;;
37655;SDS011;23498;50.958;3.124;2023-01-26T14:09:32;14.32;;;2.28;;
37655;SDS011;23498;50.958;3.124;2023-01-26T14:15:29;11.27;;;1.95;;
37655;SDS011;23498;50.958;3.124;2023-01-26T14:18:13;10.27;;;2.03;;
37655;SDS011;23498;50.958;3.124;2023-01-26T14:21:18;13.10;;;2.03;;
37655;SDS011;23498;50.958;3.124;2023-01-26T14:24:12;17.35;;;2.42;;
37655;SDS011;23498;50.958;3.124;2023-01-26T14:26:58;13.88;;;2.38;;
37655;SDS011;23498;50.958;3.124;2023-01-26T14:29:36;12.32;;;2.55;;
37655;SDS011;23498;50.958;3.124;2023-01-26T14:32:18;12.85;;;2.60;;
37655;SDS011;23498;50.958;3.124;2023-01-26T14:34:53;10.30;;;1.88;;
37655;SDS011;23498;50.958;3.124;2023-01-26T14:37:20;5.10;;;1.55;;
37655;SDS011;23498;50.958;3.124;2023-01-26T14:39:46;10.73;;;2.03;;
37655;SDS011;23498;50.958;3.124;2023-01-26T14:42:16;7.22;;;1.38;;
37655;SDS011;23498;50.958;3.124;2023-01-26T14:44:44;11.23;;;2.10;;
37655;SDS011;23498;50.958;3.124;2023-01-26T14:52:16;9.93;;;1.73;;
37655;SDS011;23498;50.958;3.124;2023-01-26T14:54:48;11.07;;;1.98;;
37655;SDS011;23498;50.958;3.124;2023-01-26T14:57:16;8.27;;;1.60;;
37655;SDS011;23498;50.958;3.124;2023-01-26T14:59:45;6.25;;;1.42;;
37655;SDS011;23498;50.958;3.124;2023-01-26T15:04:38;10.80;;;2.05;;
37655;SDS011;23498;50.958;3.124;2023-01-26T15:09:53;14.13;;;2.35;;
37655;SDS011;23498;50.958;3.124;2023-01-26T15:12:19;6.82;;;1.45;;
37655;SDS011;23498;50.958;3.124;2023-01-26T15:19:52;8.15;;;1.40;;
37655;SDS011;23498;50.958;3.124;2023-01-26T15:22:19;13.55;;;2.08;;
37655;SDS011;23498;50.958;3.124;2023-01-26T15:24:58;14.48;;;3.08;;
37655;SDS011;23498;50.958;3.124;2023-01-26T15:27:29;8.88;;;2.03;;
37655;SDS011;23498;50.958;3.124;2023-01-26T15:29:58;7.25;;;1.98;;
37655;SDS011;23498;50.958;3.124;2023-01-26T15:32:37;9.55;;;2.00;;
37655;SDS011;23498;50.958;3.124;2023-01-26T15:35:25;12.38;;;1.90;;
37655;SDS011;23498;50.958;3.124;2023-01-26T15:37:58;13.25;;;2.35;;
37655;SDS011;23498;50.958;3.124;2023-01-26T15:40:24;9.75;;;2.03;;
37655;SDS011;23498;50.958;3.124;2023-01-26T15:43:02;14.15;;;2.72;;
37655;SDS011;23498;50.958;3.124;2023-01-26T15:45:29;12.85;;;2.47;;
37655;SDS011;23498;50.958;3.124;2023-01-26T15:47:57;14.95;;;2.75;;
37655;SDS011;23498;50.958;3.124;2023-01-26T15:50:25;12.48;;;1.80;;
37655;SDS011;23498;50.958;3.124;2023-01-26T15:52:51;13.00;;;2.58;;
37655;SDS011;23498;50.958;3.124;2023-01-26T15:55:19;13.40;;;2.22;;
37655;SDS011;23498;50.958;3.124;2023-01-26T15:57:45;16.67;;;2.72;;
37655;SDS011;23498;50.958;3.124;2023-01-26T16:00:11;18.27;;;3.50;;
37655;SDS011;23498;50.958;3.124;2023-01-26T16:02:38;11.55;;;2.67;;
37655;SDS011;23498;50.958;3.124;2023-01-26T16:05:04;11.23;;;2.05;;
37655;SDS011;23498;50.958;3.124;2023-01-26T16:07:30;12.45;;;1.73;;
37655;SDS011;23498;50.958;3.124;2023-01-26T16:09:56;13.98;;;1.75;;
37655;SDS011;23498;50.958;3.124;2023-01-26T16:12:22;9.73;;;1.50;;
37655;SDS011;23498;50.958;3.124;2023-01-26T16:14:52;10.75;;;1.60;;
37655;SDS011;23498;50.958;3.124;2023-01-26T16:17:18;9.63;;;2.00;;
37655;SDS011;23498;50.958;3.124;2023-01-26T16:19:44;11.93;;;1.40;;
37655;SDS011;23498;50.958;3.124;2023-01-26T16:22:10;7.50;;;1.63;;
37655;SDS011;23498;50.958;3.124;2023-01-26T16:24:37;10.57;;;2.15;;
37655;SDS011;23498;50.958;3.124;2023-01-26T16:27:04;11.57;;;2.60;;